KRFD/RFD METAR and TAF weather

Enter ICAO airport designator
Station Type Date Time Source
KRFD METAR 2019/04/23 21:54 UTC NOAA

KRFD 232154Z 36010G14KT 10SM BKN250 19/01 A3003 RMK AO2 SLP167 T01890006


Station Type Date Time Source
KRFD Decoded METAR 2019/04/23 21:54 UTC NOAA

GREATER ROCKFORD AIRPORT, IL, United States (KRFD) 42-12N 89-06W 221M
Apr 23, 2019 - 05:54 PM EDT / 2019.04.23 2154 UTC
Wind: from the N (360 degrees) at 12 MPH (10 KT) gusting to 16 MPH (14 KT):0
Visibility: 10 mile(s):0
Sky conditions: mostly cloudy
Temperature: 66.0 F (18.9 C)
Dew Point: 33.1 F (0.6 C)
Relative Humidity: 29%
Pressure (altimeter): 30.03 in. Hg (1016 hPa)
ob: KRFD 232154Z 36010G14KT 10SM BKN250 19/01 A3003 RMK AO2 SLP167 T01890006
cycle: 22

Station Type Date Time Source
KRFD TAF 2019/04/23 21:59 UTC NOAA

TAF
AMD KRFD 232059Z 2321/2418 02010KT P6SM SCT300
FM240200 VRB03KT P6SM SCT300
FM241400 17010KT P6SM SCT250

Example: see airport list